createdAt,value
2023-04-30T00:00:40.962Z,13.77
2023-04-30T00:03:10.761Z,13.97
2023-04-30T00:05:40.101Z,13.44
2023-04-30T00:08:08.297Z,13.83
2023-04-30T00:10:36.407Z,13.28
2023-04-30T00:13:04.528Z,13.83
2023-04-30T00:15:53.935Z,14.21
2023-04-30T00:18:25.038Z,13.30
2023-04-30T00:20:53.604Z,13.59
2023-04-30T00:23:21.427Z,13.52
2023-04-30T00:25:49.298Z,12.80
2023-04-30T00:28:17.332Z,12.99
2023-04-30T00:30:45.086Z,13.01
2023-04-30T00:33:13.870Z,12.94
2023-04-30T00:35:43.387Z,13.09
2023-04-30T00:38:11.486Z,13.14
2023-04-30T00:40:42.050Z,12.47
2023-04-30T00:43:10.052Z,13.06
2023-04-30T00:45:37.902Z,12.60
2023-04-30T00:48:06.064Z,13.39
2023-04-30T00:50:34.310Z,13.05
2023-04-30T00:53:04.018Z,13.17
2023-04-30T00:55:31.905Z,13.38
2023-04-30T00:58:01.555Z,13.53
2023-04-30T01:00:31.258Z,12.99
2023-04-30T01:02:59.114Z,13.45
2023-04-30T01:05:27.124Z,13.12
2023-04-30T01:07:55.420Z,13.17
2023-04-30T01:10:28.635Z,13.46
2023-04-30T01:13:01.075Z,13.35
2023-04-30T01:15:31.785Z,12.80
2023-04-30T01:18:05.440Z,13.09
2023-04-30T01:20:34.974Z,13.43
2023-04-30T01:23:10.051Z,13.35
2023-04-30T01:25:55.500Z,13.25
2023-04-30T01:28:25.982Z,13.21
2023-04-30T01:30:54.496Z,13.06
2023-04-30T01:33:22.695Z,11.96
2023-04-30T01:36:08.927Z,13.03
2023-04-30T01:38:48.107Z,13.09
2023-04-30T01:41:22.129Z,12.36
2023-04-30T01:44:01.159Z,13.29
2023-04-30T01:46:31.285Z,12.68
2023-04-30T01:49:08.389Z,13.24
2023-04-30T01:51:42.116Z,13.15
2023-04-30T01:54:18.854Z,12.79
2023-04-30T01:56:54.744Z,12.66
2023-04-30T01:59:26.379Z,13.22
2023-04-30T02:01:55.332Z,12.10
2023-04-30T02:04:23.864Z,13.17
2023-04-30T02:06:52.514Z,12.40
2023-04-30T02:09:24.379Z,12.72
2023-04-30T02:11:52.187Z,12.32
2023-04-30T02:14:19.887Z,12.51
2023-04-30T02:16:49.710Z,11.84
2023-04-30T02:19:18.007Z,11.81
2023-04-30T02:21:45.894Z,11.83
2023-04-30T02:24:14.396Z,13.11
2023-04-30T02:26:44.126Z,12.26
2023-04-30T02:29:12.347Z,11.26
2023-04-30T02:31:40.130Z,12.02
2023-04-30T02:34:11.418Z,11.38
2023-04-30T02:36:39.113Z,11.95
2023-04-30T02:39:09.119Z,12.46
2023-04-30T02:41:37.813Z,12.00
2023-04-30T02:44:06.299Z,11.92
2023-04-30T02:46:34.411Z,12.84
2023-04-30T02:49:03.571Z,12.60
2023-04-30T02:51:32.985Z,11.99
2023-04-30T02:54:00.788Z,11.97
2023-04-30T02:56:28.639Z,11.75
2023-04-30T02:58:56.433Z,12.76
2023-04-30T03:01:24.173Z,12.08
2023-04-30T03:03:52.243Z,13.12
2023-04-30T03:06:22.785Z,13.31
2023-04-30T03:08:52.053Z,12.82
2023-04-30T03:11:19.798Z,12.33
2023-04-30T03:13:49.806Z,12.30
2023-04-30T03:16:18.122Z,12.94
2023-04-30T03:18:46.394Z,12.99
2023-04-30T03:21:14.282Z,11.83
2023-04-30T03:23:42.123Z,11.64
2023-04-30T03:26:11.359Z,12.44
2023-04-30T03:28:39.127Z,12.12
2023-04-30T03:31:07.334Z,12.64
2023-04-30T03:33:35.214Z,12.83
2023-04-30T03:36:03.007Z,12.65
2023-04-30T03:38:33.126Z,12.65
2023-04-30T03:41:00.859Z,11.97
2023-04-30T03:43:32.716Z,12.38
2023-04-30T03:46:00.481Z,12.47
2023-04-30T03:48:28.479Z,11.97
2023-04-30T03:50:56.724Z,12.43
2023-04-30T03:53:25.859Z,12.17
2023-04-30T03:55:55.510Z,12.14
2023-04-30T03:58:23.837Z,12.04
2023-04-30T04:00:53.062Z,11.86
2023-04-30T04:03:21.012Z,12.28
2023-04-30T04:05:51.408Z,11.49
2023-04-30T04:08:20.394Z,12.10
2023-04-30T04:10:48.275Z,12.48
2023-04-30T04:13:15.988Z,12.32
2023-04-30T04:15:43.838Z,11.65
2023-04-30T04:18:13.293Z,12.21
2023-04-30T04:20:41.316Z,11.84
2023-04-30T04:23:11.272Z,12.01
2023-04-30T04:25:41.738Z,12.79
2023-04-30T04:28:09.453Z,13.01
2023-04-30T04:30:37.861Z,11.92
2023-04-30T04:33:09.219Z,12.09
2023-04-30T04:35:38.907Z,12.53
2023-04-30T04:38:06.668Z,12.63
2023-04-30T04:40:38.688Z,12.53
2023-04-30T04:43:06.648Z,11.95
2023-04-30T04:45:34.332Z,12.74
2023-04-30T04:48:02.179Z,12.54
2023-04-30T04:50:31.185Z,12.89
2023-04-30T04:53:00.386Z,13.20
2023-04-30T04:55:28.456Z,13.45
2023-04-30T04:57:57.319Z,13.22
2023-04-30T05:00:26.289Z,13.67
2023-04-30T05:02:54.059Z,13.54
2023-04-30T05:05:21.818Z,13.51
2023-04-30T05:07:52.523Z,13.61
2023-04-30T05:10:21.916Z,13.78
2023-04-30T05:12:49.696Z,13.89
2023-04-30T05:15:17.557Z,13.93
2023-04-30T05:17:48.289Z,13.68
2023-04-30T05:20:16.339Z,13.76
2023-04-30T05:22:44.193Z,13.73
2023-04-30T05:25:11.928Z,14.30
2023-04-30T05:27:41.060Z,14.21
2023-04-30T05:30:10.602Z,14.54
2023-04-30T05:32:38.444Z,14.32
2023-04-30T05:35:09.073Z,13.75
2023-04-30T05:37:37.064Z,14.59
2023-04-30T05:40:06.381Z,14.31
2023-04-30T05:42:38.308Z,14.93
2023-04-30T05:45:08.955Z,14.51
2023-04-30T05:47:36.745Z,14.41
2023-04-30T05:50:05.433Z,14.39
2023-04-30T05:52:34.833Z,15.07
2023-04-30T05:55:15.133Z,14.77
2023-04-30T05:57:44.370Z,15.25
2023-04-30T06:00:15.800Z,15.43
2023-04-30T06:02:43.800Z,15.38
2023-04-30T06:05:13.369Z,14.32
2023-04-30T06:07:43.431Z,13.98
2023-04-30T06:10:12.838Z,14.17
2023-04-30T06:12:40.975Z,15.16
2023-04-30T06:15:10.655Z,15.02
2023-04-30T06:17:40.209Z,14.81
2023-04-30T06:20:09.852Z,14.40
2023-04-30T06:22:37.566Z,14.44
2023-04-30T06:25:06.026Z,15.59
2023-04-30T06:27:33.739Z,15.60
2023-04-30T06:30:01.964Z,16.08
2023-04-30T06:32:30.226Z,15.83
2023-04-30T06:35:00.387Z,16.03
2023-04-30T06:37:28.757Z,15.75
2023-04-30T06:39:57.094Z,16.05
2023-04-30T06:42:25.539Z,16.62
2023-04-30T06:44:55.475Z,15.28
2023-04-30T06:47:23.262Z,15.44
2023-04-30T06:49:51.452Z,15.27
2023-04-30T06:52:21.781Z,15.60
2023-04-30T06:54:49.472Z,16.43
2023-04-30T06:57:17.574Z,15.91
2023-04-30T06:59:47.160Z,15.36
2023-04-30T07:02:14.942Z,15.39
2023-04-30T07:04:43.036Z,15.78
2023-04-30T07:07:10.818Z,16.05
2023-04-30T07:09:40.661Z,16.33
2023-04-30T07:12:08.881Z,16.78
2023-04-30T07:14:36.872Z,16.96
2023-04-30T07:17:04.584Z,16.47
2023-04-30T07:19:32.905Z,16.42
2023-04-30T07:22:00.602Z,16.45
2023-04-30T07:24:57.128Z,16.49
2023-04-30T07:27:28.308Z,16.23
2023-04-30T07:29:56.723Z,16.54
2023-04-30T07:32:27.532Z,17.15
2023-04-30T07:34:56.332Z,16.42
2023-04-30T07:37:23.997Z,16.91
2023-04-30T07:39:51.888Z,16.51
2023-04-30T07:42:19.793Z,16.97
2023-04-30T07:44:50.013Z,17.15
2023-04-30T07:47:18.894Z,17.33
2023-04-30T07:49:49.366Z,17.21
2023-04-30T07:52:17.421Z,17.18
2023-04-30T07:54:45.083Z,16.07
2023-04-30T07:57:15.871Z,18.11
2023-04-30T07:59:43.554Z,18.08
2023-04-30T08:02:16.024Z,18.26
2023-04-30T08:04:44.178Z,18.51
2023-04-30T08:07:12.550Z,18.27
2023-04-30T08:09:41.211Z,18.16
2023-04-30T08:12:14.279Z,18.58
2023-04-30T08:14:41.958Z,18.70
2023-04-30T08:17:09.971Z,18.27
2023-04-30T08:19:41.485Z,17.77
2023-04-30T08:22:09.460Z,17.37
2023-04-30T08:24:37.298Z,18.50
2023-04-30T08:27:05.144Z,18.94
2023-04-30T08:29:32.832Z,18.00
2023-04-30T08:32:05.689Z,18.36
2023-04-30T08:34:36.815Z,18.64
2023-04-30T08:37:06.143Z,19.13
2023-04-30T08:39:47.143Z,19.52
2023-04-30T08:42:16.280Z,18.45
2023-04-30T08:44:46.636Z,17.94
2023-04-30T08:47:15.049Z,19.56
2023-04-30T08:49:45.758Z,19.15
2023-04-30T08:52:15.389Z,18.99
2023-04-30T08:54:43.583Z,19.56
2023-04-30T08:57:11.828Z,19.64
2023-04-30T08:59:39.816Z,19.87
2023-04-30T09:02:07.892Z,18.97
2023-04-30T09:04:35.856Z,19.28
2023-04-30T09:07:06.250Z,18.80
2023-04-30T09:09:40.812Z,20.72
2023-04-30T09:12:18.591Z,19.80
2023-04-30T09:14:59.884Z,19.02
2023-04-30T09:17:30.828Z,20.12
2023-04-30T09:20:08.991Z,18.77
2023-04-30T09:22:38.586Z,19.37
2023-04-30T09:25:08.972Z,19.93
2023-04-30T09:27:37.010Z,19.92
2023-04-30T09:30:06.027Z,20.43
2023-04-30T09:32:34.081Z,20.41
2023-04-30T09:35:01.834Z,20.11
2023-04-30T09:37:38.071Z,19.70
2023-04-30T09:40:11.707Z,19.11
2023-04-30T09:42:39.804Z,19.48
2023-04-30T09:45:08.766Z,19.59
2023-04-30T09:47:36.642Z,20.13
2023-04-30T09:50:04.607Z,20.26
2023-04-30T09:52:32.278Z,19.48
2023-04-30T09:55:00.050Z,19.45
2023-04-30T09:57:32.354Z,18.26
2023-04-30T10:00:00.650Z,19.73
2023-04-30T10:02:28.912Z,19.65
2023-04-30T10:04:59.288Z,20.09
2023-04-30T10:07:32.714Z,20.76
2023-04-30T10:10:06.397Z,20.85
2023-04-30T10:12:41.105Z,21.36
2023-04-30T10:15:13.299Z,21.04
2023-04-30T10:17:42.551Z,21.28
2023-04-30T10:20:11.665Z,21.36
2023-04-30T10:22:41.715Z,20.25
2023-04-30T10:25:13.418Z,20.78
2023-04-30T10:27:43.062Z,21.45
2023-04-30T10:30:15.617Z,21.47
2023-04-30T10:32:48.640Z,22.03
2023-04-30T10:35:21.032Z,22.69
2023-04-30T10:37:52.004Z,21.79
2023-04-30T10:40:20.266Z,22.40
2023-04-30T10:42:50.023Z,21.15
2023-04-30T10:45:17.890Z,21.93
2023-04-30T10:47:46.806Z,22.11
2023-04-30T10:50:14.541Z,22.12
2023-04-30T10:52:42.218Z,21.69
2023-04-30T10:55:11.214Z,21.90
2023-04-30T10:57:42.587Z,21.59
2023-04-30T11:00:21.797Z,20.92
2023-04-30T11:02:50.047Z,21.15
2023-04-30T11:05:18.956Z,21.52
2023-04-30T11:07:50.562Z,22.90
2023-04-30T11:10:21.622Z,21.59
2023-04-30T11:12:49.948Z,21.17
2023-04-30T11:15:21.632Z,21.66
2023-04-30T11:17:49.966Z,22.54
2023-04-30T11:20:21.103Z,22.28
2023-04-30T11:22:48.874Z,22.41
2023-04-30T11:25:20.403Z,21.55
2023-04-30T11:27:48.166Z,21.21
2023-04-30T11:30:17.364Z,22.36
2023-04-30T11:32:48.406Z,23.21
2023-04-30T11:35:44.744Z,23.87
2023-04-30T11:38:14.195Z,22.59
2023-04-30T11:40:42.553Z,23.32
2023-04-30T11:43:22.642Z,22.88
2023-04-30T11:46:04.410Z,23.74
2023-04-30T11:48:34.614Z,22.50
2023-04-30T11:51:05.137Z,22.67
2023-04-30T11:53:33.004Z,22.46
2023-04-30T11:56:04.868Z,24.19
2023-04-30T11:58:38.019Z,23.50
2023-04-30T12:01:06.469Z,24.26
2023-04-30T12:03:42.053Z,23.87
2023-04-30T12:06:11.747Z,23.92
2023-04-30T12:08:40.024Z,24.65
2023-04-30T12:11:20.820Z,24.97
2023-04-30T12:13:52.110Z,24.18
2023-04-30T12:16:20.095Z,23.21
2023-04-30T12:18:51.343Z,24.04
2023-04-30T12:21:21.533Z,25.64
2023-04-30T12:23:49.472Z,26.00
2023-04-30T12:26:18.145Z,24.82
2023-04-30T12:28:48.580Z,25.22
2023-04-30T12:31:16.424Z,26.58
2023-04-30T12:34:24.462Z,24.23
2023-04-30T12:36:52.144Z,26.84
2023-04-30T12:39:19.886Z,25.59
2023-04-30T12:41:48.845Z,25.95
2023-04-30T12:44:21.250Z,25.27
2023-04-30T12:46:49.553Z,26.04
2023-04-30T12:49:29.279Z,25.60
2023-04-30T12:52:01.571Z,28.39
2023-04-30T12:54:30.732Z,27.38
2023-04-30T12:57:03.409Z,27.99
2023-04-30T12:59:32.056Z,26.77
2023-04-30T13:02:08.288Z,25.59
2023-04-30T13:04:37.593Z,26.61
2023-04-30T13:07:05.553Z,26.51
2023-04-30T13:09:34.401Z,25.02
2023-04-30T13:12:02.293Z,24.93
2023-04-30T13:14:30.145Z,23.51
2023-04-30T13:16:57.967Z,27.36
2023-04-30T13:19:26.179Z,28.56
2023-04-30T13:21:55.280Z,27.84
2023-04-30T13:24:23.048Z,28.75
2023-04-30T13:26:50.801Z,30.48
2023-04-30T13:29:20.797Z,31.25
2023-04-30T13:31:49.962Z,31.66
2023-04-30T13:34:17.760Z,30.39
2023-04-30T13:36:46.882Z,28.83
2023-04-30T13:39:16.346Z,28.51
2023-04-30T13:44:26.455Z,27.04
2023-04-30T13:46:54.198Z,27.59
2023-04-30T13:49:21.942Z,27.97
2023-04-30T13:51:49.922Z,25.89
2023-04-30T13:54:19.416Z,25.58
2023-04-30T13:56:48.747Z,28.84
2023-04-30T13:59:16.733Z,27.35
2023-04-30T14:01:44.557Z,27.56
2023-04-30T14:04:36.037Z,28.18
2023-04-30T14:07:04.015Z,26.88
2023-04-30T14:09:33.159Z,26.65
2023-04-30T14:12:01.064Z,24.08
2023-04-30T14:14:29.013Z,24.24
2023-04-30T14:16:56.895Z,23.38
2023-04-30T14:19:24.668Z,23.71
2023-04-30T14:21:52.377Z,23.85
2023-04-30T14:24:20.167Z,24.56
2023-04-30T14:26:49.303Z,24.24
2023-04-30T14:29:20.469Z,24.37
2023-04-30T14:31:50.708Z,27.84
2023-04-30T14:34:19.818Z,27.77
2023-04-30T14:36:47.591Z,28.92
2023-04-30T14:39:15.326Z,30.63
2023-04-30T14:41:42.998Z,28.09
2023-04-30T14:44:12.116Z,25.66
2023-04-30T14:46:40.837Z,25.69
2023-04-30T14:49:08.578Z,25.70
2023-04-30T14:51:59.594Z,27.01
2023-04-30T14:54:27.331Z,29.07
2023-04-30T14:56:55.222Z,30.83
2023-04-30T14:59:24.340Z,31.75
2023-04-30T15:01:52.128Z,32.67
2023-04-30T15:04:19.988Z,29.15
2023-04-30T15:06:48.479Z,30.93
2023-04-30T15:09:16.904Z,30.81
2023-04-30T15:11:44.625Z,28.42
2023-04-30T15:14:12.700Z,29.96
2023-04-30T15:16:42.317Z,29.27
2023-04-30T15:19:10.254Z,30.60
2023-04-30T15:21:37.929Z,31.48
2023-04-30T15:24:06.366Z,29.07
2023-04-30T15:26:34.139Z,32.64
2023-04-30T15:29:01.951Z,34.25
2023-04-30T15:31:30.772Z,34.93
2023-04-30T15:33:59.965Z,32.46
2023-04-30T15:36:27.688Z,32.57
2023-04-30T15:38:55.429Z,32.15
2023-04-30T15:41:23.220Z,31.47
2023-04-30T15:43:51.201Z,33.56
2023-04-30T15:46:19.372Z,31.43
2023-04-30T15:48:47.137Z,31.37
2023-04-30T15:51:16.267Z,33.05
2023-04-30T15:53:43.941Z,31.21
2023-04-30T15:56:12.056Z,31.14
2023-04-30T15:58:40.393Z,29.78
2023-04-30T16:01:08.840Z,29.48
2023-04-30T16:03:37.721Z,29.33
2023-04-30T16:06:05.853Z,29.62
2023-04-30T16:08:35.306Z,30.43
2023-04-30T16:11:03.649Z,32.15
2023-04-30T16:13:31.359Z,30.14
2023-04-30T16:15:59.049Z,33.71
2023-04-30T16:18:26.795Z,30.18
2023-04-30T16:20:54.505Z,32.12
2023-04-30T16:23:22.488Z,31.32
2023-04-30T16:25:51.582Z,30.46
2023-04-30T16:28:19.356Z,30.37
2023-04-30T16:30:47.394Z,30.89
2023-04-30T16:33:15.111Z,28.32
2023-04-30T16:35:43.555Z,28.91
2023-04-30T16:38:11.319Z,27.88
2023-04-30T16:40:39.030Z,29.86
2023-04-30T16:43:08.208Z,30.87
2023-04-30T16:45:36.176Z,30.09
2023-04-30T16:48:04.070Z,29.85
2023-04-30T16:50:31.959Z,26.67
2023-04-30T16:52:59.665Z,27.25
2023-04-30T16:55:27.601Z,25.42
2023-04-30T16:57:56.365Z,24.02
2023-04-30T17:00:25.534Z,23.68
2023-04-30T17:02:53.979Z,25.02
2023-04-30T17:05:22.358Z,23.90
2023-04-30T17:07:50.420Z,24.39
2023-04-30T17:13:32.438Z,23.36
2023-04-30T17:16:02.342Z,23.48
2023-04-30T17:18:30.190Z,23.71
2023-04-30T17:20:57.940Z,23.81
2023-04-30T17:23:26.036Z,24.35
2023-04-30T17:25:53.783Z,23.57
2023-04-30T17:28:21.856Z,22.95
2023-04-30T17:30:49.925Z,22.95
2023-04-30T17:33:19.311Z,22.74
2023-04-30T17:35:46.999Z,23.20
2023-04-30T17:38:14.865Z,22.95
2023-04-30T17:40:42.559Z,22.74
2023-04-30T17:43:10.330Z,22.23
2023-04-30T17:45:38.399Z,22.12
2023-04-30T17:48:06.282Z,22.03
2023-04-30T17:50:35.507Z,21.67
2023-04-30T17:53:03.280Z,21.38
2023-04-30T17:55:31.002Z,21.72
2023-04-30T17:57:59.452Z,21.81
2023-04-30T18:00:27.169Z,21.65
2023-04-30T18:02:54.925Z,21.16
2023-04-30T18:05:22.929Z,20.74
2023-04-30T18:07:52.049Z,20.54
2023-04-30T18:10:19.734Z,20.71
2023-04-30T18:12:47.449Z,20.59
2023-04-30T18:15:15.331Z,21.49
2023-04-30T18:17:43.715Z,20.72
2023-04-30T18:20:13.236Z,20.37
2023-04-30T18:22:43.552Z,19.94
2023-04-30T18:25:14.262Z,20.64
2023-04-30T18:27:42.354Z,20.43
2023-04-30T18:30:11.926Z,20.61
2023-04-30T18:32:42.027Z,20.17
2023-04-30T18:35:10.834Z,19.92
2023-04-30T18:37:38.747Z,19.92
2023-04-30T18:40:07.725Z,19.21
2023-04-30T18:42:37.547Z,19.12
2023-04-30T18:45:06.098Z,18.84
2023-04-30T18:47:34.140Z,19.77
2023-04-30T18:50:01.927Z,19.08
2023-04-30T18:52:29.829Z,18.65
2023-04-30T18:54:57.687Z,18.98
2023-04-30T18:57:25.590Z,19.00
2023-04-30T18:59:55.000Z,18.93
2023-04-30T19:02:23.031Z,18.49
2023-04-30T19:04:50.891Z,18.75
2023-04-30T19:07:18.565Z,18.03
2023-04-30T19:09:48.394Z,18.53
2023-04-30T19:12:16.159Z,18.62
2023-04-30T19:14:45.244Z,17.92
2023-04-30T19:17:14.647Z,17.65
2023-04-30T19:19:43.774Z,17.08
2023-04-30T19:22:11.679Z,17.05
2023-04-30T19:24:39.442Z,17.57
2023-04-30T19:27:07.101Z,17.36
2023-04-30T19:29:35.199Z,17.30
2023-04-30T19:32:04.913Z,16.81
2023-04-30T19:34:34.645Z,17.36
2023-04-30T19:37:02.380Z,17.30
2023-04-30T19:39:30.568Z,17.37
2023-04-30T19:41:59.014Z,17.19
2023-04-30T19:44:29.209Z,16.96
2023-04-30T19:46:57.762Z,16.90
2023-04-30T19:49:26.614Z,17.26
2023-04-30T19:51:55.883Z,17.08
2023-04-30T19:54:23.639Z,16.96
2023-04-30T19:56:52.875Z,16.58
2023-04-30T19:59:20.760Z,16.57
2023-04-30T20:01:48.882Z,16.71
2023-04-30T20:04:16.686Z,16.75
2023-04-30T20:06:44.715Z,16.55
2023-04-30T20:09:15.116Z,16.42
2023-04-30T20:11:42.814Z,16.61
2023-04-30T20:14:10.968Z,16.22
2023-04-30T20:16:38.835Z,16.46
2023-04-30T20:19:07.258Z,16.44
2023-04-30T20:21:34.938Z,16.45
2023-04-30T20:24:04.212Z,16.76
2023-04-30T20:26:34.149Z,16.55
2023-04-30T20:29:01.817Z,16.09
2023-04-30T20:31:31.311Z,16.12
2023-04-30T20:33:59.528Z,16.43
2023-04-30T20:36:29.729Z,16.14
2023-04-30T20:38:57.419Z,16.35
2023-04-30T20:41:25.821Z,16.48
2023-04-30T20:43:56.808Z,16.23
2023-04-30T20:46:24.966Z,16.06
2023-04-30T20:48:54.558Z,15.91
2023-04-30T20:51:23.567Z,16.19
2023-04-30T20:53:51.338Z,15.70
2023-04-30T20:56:19.024Z,15.69
2023-04-30T20:58:46.760Z,15.89
2023-04-30T21:01:15.936Z,15.82
2023-04-30T21:03:43.719Z,15.43
2023-04-30T21:06:12.048Z,15.79
2023-04-30T21:08:39.741Z,15.81
2023-04-30T21:11:07.503Z,15.81
2023-04-30T21:13:35.274Z,15.60
2023-04-30T21:16:05.232Z,15.37
2023-04-30T21:18:35.154Z,15.55
2023-04-30T21:21:03.749Z,15.93
2023-04-30T21:23:32.590Z,16.04
2023-04-30T21:26:00.572Z,15.86
2023-04-30T21:28:28.314Z,15.27
2023-04-30T21:30:56.203Z,15.85
2023-04-30T21:33:23.986Z,15.53
2023-04-30T21:35:53.050Z,15.22
2023-04-30T21:38:20.762Z,15.11
2023-04-30T21:40:48.461Z,15.00
2023-04-30T21:43:17.839Z,14.88
2023-04-30T21:45:45.699Z,14.98
2023-04-30T21:48:13.593Z,14.77
2023-04-30T21:50:41.283Z,14.60
2023-04-30T21:53:10.818Z,14.80
2023-04-30T21:55:38.520Z,15.06
2023-04-30T21:58:06.222Z,15.00
2023-04-30T22:00:34.907Z,14.87
2023-04-30T22:03:02.636Z,14.90
2023-04-30T22:05:30.376Z,15.03
2023-04-30T22:07:58.110Z,14.62
2023-04-30T22:10:27.412Z,15.32
2023-04-30T22:12:55.284Z,14.90
2023-04-30T22:15:23.104Z,15.19
2023-04-30T22:17:50.886Z,14.86
2023-04-30T22:20:18.765Z,14.54
2023-04-30T22:22:46.841Z,14.70
2023-04-30T22:25:15.078Z,14.97
2023-04-30T22:27:45.682Z,14.71
2023-04-30T22:30:13.564Z,14.53
2023-04-30T22:32:42.344Z,14.88
2023-04-30T22:35:12.053Z,14.86
2023-04-30T22:37:40.370Z,14.85
2023-04-30T22:40:09.097Z,14.46
2023-04-30T22:42:36.816Z,14.32
2023-04-30T22:45:06.967Z,14.70
2023-04-30T22:47:35.257Z,14.58
2023-04-30T22:50:03.411Z,14.31
2023-04-30T22:52:33.086Z,14.00
2023-04-30T22:55:01.323Z,13.97
2023-04-30T22:57:29.066Z,14.18
2023-04-30T22:59:57.451Z,14.01
2023-04-30T23:02:28.747Z,14.04
2023-04-30T23:04:56.973Z,14.42
2023-04-30T23:07:24.817Z,14.34
2023-04-30T23:09:52.587Z,13.95
2023-04-30T23:12:20.302Z,14.74
2023-04-30T23:14:47.983Z,14.60
2023-04-30T23:17:15.787Z,13.45
2023-04-30T23:19:44.904Z,14.60
2023-04-30T23:22:12.661Z,14.30
2023-04-30T23:24:41.206Z,14.02
2023-04-30T23:27:08.961Z,14.22
2023-04-30T23:29:36.742Z,14.35
2023-04-30T23:32:05.729Z,14.06
2023-04-30T23:34:33.614Z,13.94
2023-04-30T23:37:03.047Z,13.97
2023-04-30T23:39:31.007Z,14.46
2023-04-30T23:41:58.930Z,14.29
2023-04-30T23:44:26.678Z,13.90
2023-04-30T23:46:56.097Z,13.73
2023-04-30T23:49:24.995Z,14.30
2023-04-30T23:51:53.176Z,13.91
2023-04-30T23:54:22.414Z,13.88
2023-04-30T23:56:50.260Z,13.94
2023-04-30T23:59:17.943Z,14.16
